Time;durP1;ratioP1;P1;durP2;ratioP2;P2;SDS_P1;SDS_P2;PMS_P1;PMS_P2;Temp;Humidity;BMP_temperature;BMP_pressure;BME280_temperature;BME280_humidity;BME280_pressure;Samples;Min_cycle;Max_cycle;Signal;HPM_P1;HPM_P2
2022/07/07 00:00:25;;;;;;;1999.90;999.90;;;;;;;-143.90;100.00;54994.06;3051032;19;19914;-61
2022/07/07 00:01:26;;;;;;;;;;;;;;;-143.90;100.00;55007.97;3051481;19;20034;-61
2022/07/07 00:02:27;;;;;;;1999.90;999.90;;;;;;;-143.90;100.00;55025.84;3054823;19;19922;-61
2022/07/07 00:03:28;;;;;;;;;;;;;;;-143.90;100.00;55013.94;3053238;19;20018;-60
2022/07/07 00:04:29;;;;;;;1999.90;999.90;;;;;;;-143.90;100.00;55035.78;3051951;19;19978;-61
2022/07/07 00:05:30;;;;;;;;;;;;;;;-143.90;100.00;55015.91;3053523;19;20386;-60
2022/07/07 00:06:31;;;;;;;1999.90;999.90;;;;;;;-143.90;100.00;54996.06;3052961;19;19925;-61
2022/07/07 00:07:32;;;;;;;;;;;;;;;-143.90;100.00;55007.97;3054395;19;20504;-60
2022/07/07 00:08:33;;;;;;;1999.90;999.90;;;;;;;-143.90;100.00;55007.97;3052168;19;20427;-61
2022/07/07 00:09:34;;;;;;;;;;;;;;;-143.90;100.00;55007.97;3049388;19;20018;-61
2022/07/07 00:10:35;;;;;;;1999.90;999.90;;;;;;;-143.90;100.00;55027.81;3051833;19;19931;-61
2022/07/07 00:11:36;;;;;;;1999.90;999.90;;;;;;;-143.90;100.00;55011.94;3050723;19;20017;-61
2022/07/07 00:12:37;;;;;;;;;;;;;;;-143.90;100.00;55007.97;3052241;19;20014;-60
2022/07/07 00:13:38;;;;;;;1999.90;999.90;;;;;;;-143.90;100.00;55007.97;3052951;19;20291;-60
2022/07/07 00:14:39;;;;;;;;;;;;;;;-143.90;100.00;55019.88;3051859;19;20377;-60
2022/07/07 00:15:45;;;;;;;1999.90;999.90;;;;;;;-143.90;100.00;55015.91;3053769;19;19923;-60
2022/07/07 00:16:46;;;;;;;1999.90;999.90;;;;;;;-143.90;100.00;54998.03;3052079;19;20021;-60
2022/07/07 00:17:46;;;;;;;;;;;;;;;-143.90;100.00;55004.00;3052020;19;20037;-60
2022/07/07 00:18:48;;;;;;;1999.90;999.90;;;;;;;-143.90;100.00;54986.13;3049467;19;19941;-60
2022/07/07 00:19:49;;;;;;;1999.90;999.90;;;;;;;-143.90;100.00;55004.00;3052057;19;20078;-61
2022/07/07 00:20:50;;;;;;;;;;;;;;;-143.90;100.00;55035.78;3052288;19;20110;-60
2022/07/07 00:21:51;;;;;;;1999.90;999.90;;;;;;;-143.90;100.00;55027.81;3053369;19;19960;-60
2022/07/07 00:22:52;;;;;;;;;;;;;;;-143.90;100.00;54990.09;3052837;19;20397;-60
2022/07/07 00:23:53;;;;;;;1999.90;999.90;;;;;;;-143.90;100.00;55043.72;3052880;19;19911;-60
2022/07/07 00:24:53;;;;;;;;;;;;;;;-143.90;100.00;55023.84;3053998;19;20006;-60
2022/07/07 00:25:56;;;;;;;1999.90;999.90;;;;;;;-143.90;100.00;55011.94;3052719;19;19924;-60
2022/07/07 00:26:57;;;;;;;1999.90;999.90;;;;;;;-143.90;100.00;54988.13;3053617;19;20094;-60
2022/07/07 00:27:58;;;;;;;;;;;;;;;-143.90;100.00;55017.91;3049765;19;20112;-60
2022/07/07 00:28:59;;;;;;;1999.90;999.90;;;;;;;-143.90;100.00;55007.97;3048634;19;19968;-61
2022/07/07 00:30:00;;;;;;;1999.90;999.90;;;;;;;-143.90;100.00;55011.94;3047219;19;20002;-60
2022/07/07 00:31:01;;;;;;;;;;;;;;;-143.90;100.00;55000.03;3042625;19;20037;-60
2022/07/07 00:32:02;;;;;;;1999.90;999.90;;;;;;;-143.90;100.00;54992.09;3047907;19;19915;-61
2022/07/07 00:33:03;;;;;;;1999.90;999.90;;;;;;;-143.90;100.00;55015.91;3050334;19;20017;-60
2022/07/07 00:34:04;;;;;;;;;;;;;;;-143.90;100.00;54990.09;3046806;19;20469;-62
2022/07/07 00:35:06;;;;;;;1999.90;999.90;;;;;;;-143.90;100.00;54980.19;3050338;19;19918;-60
2022/07/07 00:36:07;;;;;;;1999.90;999.90;;;;;;;-143.90;100.00;54984.16;3047997;19;20082;-60
2022/07/07 00:37:08;;;;;;;1999.90;999.90;;;;;;;-143.90;100.00;54992.09;3050421;19;20037;-60
2022/07/07 00:38:09;;;;;;;1999.90;999.90;;;;;;;-143.90;100.00;55006.00;3049983;19;20553;-60
2022/07/07 00:39:12;;;;;;;1999.90;999.90;;;;;;;-143.90;100.00;55023.84;3049055;19;20648;-61
2022/07/07 00:40:13;;;;;;;1999.90;999.90;;;;;;;-143.90;100.00;54982.16;3047898;19;20009;-61
2022/07/07 00:41:14;;;;;;;;;;;;;;;-143.90;100.00;55035.78;3051729;19;20047;-61
2022/07/07 00:42:15;;;;;;;;;;;;;;;-143.90;100.00;55007.97;3047264;19;20836;-61
2022/07/07 00:43:16;;;;;;;1999.90;999.90;;;;;;;-143.90;100.00;54988.13;3051116;19;20275;-61
2022/07/07 00:44:18;;;;;;;1999.90;999.90;;;;;;;-143.90;100.00;55011.94;3044288;19;20078;-61
2022/07/07 00:45:19;;;;;;;1999.90;999.90;;;;;;;-143.90;100.00;55045.69;3045628;19;20014;-61
2022/07/07 00:46:20;;;;;;;;;;;;;;;-143.90;100.00;55002.00;3051350;19;20003;-61
2022/07/07 00:47:21;;;;;;;1999.90;999.90;;;;;;;-143.90;100.00;55023.84;3047534;19;19929;-60
2022/07/07 00:48:22;;;;;;;1999.90;999.90;;;;;;;-143.90;100.00;55039.75;3050947;19;20664;-60
2022/07/07 00:49:23;;;;;;;;;;;;;;;-143.90;100.00;54998.03;3051085;19;20837;-60
2022/07/07 00:50:24;;;;;;;1999.90;999.90;;;;;;;-143.90;100.00;55000.03;3043181;19;20256;-61
2022/07/07 00:51:25;;;;;;;;;;;;;;;-143.90;100.00;55027.81;3051061;19;20006;-61
2022/07/07 00:52:26;;;;;;;1999.90;999.90;;;;;;;-143.90;100.00;55019.88;3048718;19;19962;-62
2022/07/07 00:53:27;;;;;;;;;;;;;;;-143.90;100.00;55023.84;3050588;19;20045;-60
2022/07/07 00:54:28;;;;;;;1999.90;999.90;;;;;;;-143.90;100.00;55011.94;3047793;19;19918;-61
2022/07/07 00:55:29;;;;;;;;;;;;;;;-143.90;100.00;54964.28;3050327;19;20014;-61
2022/07/07 00:56:30;;;;;;;1999.90;999.90;;;;;;;-143.90;100.00;55007.97;3047248;19;19918;-60
2022/07/07 00:57:32;;;;;;;;;;;;;;;-143.90;100.00;54996.06;3048288;19;20350;-61
2022/07/07 00:58:33;;;;;;;1999.90;999.90;;;;;;;-143.90;100.00;55019.88;3050630;19;19927;-61
2022/07/07 00:59:34;;;;;;;1999.90;999.90;;;;;;;-143.90;100.00;55039.75;3048860;19;20113;-60
2022/07/07 01:00:36;;;;;;;;;;;;;;;-143.90;100.00;55000.03;3050602;19;20053;-61
2022/07/07 01:01:38;;;;;;;1999.90;999.90;;;;;;;-143.90;100.00;55004.00;3046323;19;19957;-61
2022/07/07 01:02:42;;;;;;;1999.90;999.90;;;;;;;-143.90;100.00;55019.88;3046933;19;20807;-60
2022/07/07 01:03:43;;;;;;;1999.90;999.90;;;;;;;-143.90;100.00;55019.88;3049230;19;20036;-60
2022/07/07 01:04:44;;;;;;;;;;;;;;;-143.90;100.00;55002.00;3048893;19;20015;-60
2022/07/07 01:05:46;;;;;;;1999.90;999.90;;;;;;;-143.90;100.00;55000.03;3047927;19;20342;-60
2022/07/07 01:06:47;;;;;;;1999.90;999.90;;;;;;;-143.90;100.00;54996.06;3048205;19;20035;-61
2022/07/07 01:07:50;;;;;;;1999.90;999.90;;;;;;;-143.90;100.00;55035.78;3049007;19;20026;-61
2022/07/07 01:08:52;;;;;;;1999.90;999.90;;;;;;;-143.90;100.00;55041.72;3048535;19;20010;-60
2022/07/07 01:09:54;;;;;;;1999.90;999.90;;;;;;;-143.90;100.00;55027.81;3041716;19;20462;-60
2022/07/07 01:10:55;;;;;;;1999.90;999.90;;;;;;;-143.90;100.00;55009.97;3048554;19;20093;-61
2022/07/07 01:11:57;;;;;;;;;;;;;;;-143.90;100.00;55047.69;3048834;19;20107;-61
2022/07/07 01:13:02;;;;;;;1999.90;999.90;;;;;;;-143.90;100.00;55023.84;3050273;19;19919;-62
2022/07/07 01:14:03;;;;;;;1999.90;999.90;;;;;;;-143.90;100.00;55000.03;3047321;19;20015;-60
2022/07/07 01:15:05;;;;;;;;;;;;;;;-143.90;100.00;55007.97;3049928;19;20037;-61
2022/07/07 01:16:06;;;;;;;1999.90;999.90;;;;;;;-143.90;100.00;54992.09;3047653;19;20484;-61
2022/07/07 01:17:07;;;;;;;;;;;;;;;-143.90;100.00;55039.75;3045325;19;20642;-61
2022/07/07 01:18:08;;;;;;;1999.90;999.90;;;;;;;-143.90;100.00;55007.97;3050527;19;20768;-61
2022/07/07 01:19:10;;;;;;;1999.90;999.90;;;;;;;-143.90;100.00;54968.25;3048338;19;20022;-61
2022/07/07 01:20:13;;;;;;;1999.90;999.90;;;;;;;-143.90;100.00;55011.94;3044844;19;20722;-61
2022/07/07 01:21:16;;;;;;;1999.90;999.90;;;;;;;-143.90;100.00;55017.91;3046460;19;20045;-61
2022/07/07 01:22:19;;;;;;;1999.90;999.90;;;;;;;-143.90;100.00;55027.81;3049135;19;20041;-60
2022/07/07 01:23:20;;;;;;;1999.90;999.90;;;;;;;-143.90;100.00;54998.03;3046653;19;20010;-60
2022/07/07 01:24:22;;;;;;;;;;;;;;;-143.90;100.00;54988.13;3050369;19;20056;-59
2022/07/07 01:25:23;;;;;;;;;;;;;;;-143.90;100.00;55047.69;3047002;19;19945;-61
2022/07/07 01:26:26;;;;;;;1999.90;999.90;;;;;;;-143.90;100.00;55023.84;3047905;19;20593;-62
2022/07/07 01:27:27;;;;;;;1999.90;999.90;;;;;;;-143.90;100.00;54984.16;3047877;19;20010;-62
2022/07/07 01:28:28;;;;;;;1999.90;999.90;;;;;;;-143.90;100.00;55019.88;3047871;19;20018;-61
2022/07/07 01:29:32;;;;;;;;;;;;;;;-143.90;100.00;55023.84;3050072;19;20022;-61
2022/07/07 01:30:33;;;;;;;1999.90;999.90;;;;;;;-143.90;100.00;55000.03;3043988;19;19989;-61
2022/07/07 01:31:34;;;;;;;;;;;;;;;-143.90;100.00;54996.06;3047881;19;20097;-61
2022/07/07 01:32:35;;;;;;;1999.90;999.90;;;;;;;-143.90;100.00;55007.97;3048484;19;19915;-62
2022/07/07 01:33:35;;;;;;;;;;;;;;;-143.90;100.00;55035.78;3046816;19;19998;-59
2022/07/07 01:34:38;;;;;;;1999.90;999.90;;;;;;;-143.90;100.00;55021.88;3049309;19;19922;-60
2022/07/07 01:35:39;;;;;;;1999.90;999.90;;;;;;;-143.90;100.00;54976.19;3045612;19;20018;-60
2022/07/07 01:36:40;;;;;;;;;;;;;;;-143.90;100.00;55031.78;3048494;19;20018;-60
2022/07/07 01:37:41;;;;;;;1999.90;999.90;;;;;;;-143.90;100.00;55009.97;3049203;19;19923;-60
2022/07/07 01:38:42;;;;;;;1999.90;999.90;;;;;;;-143.90;100.00;55033.78;3044148;19;20022;-61
2022/07/07 01:39:44;;;;;;;;;;;;;;;-143.90;100.00;55007.97;3049113;19;20023;-61
2022/07/07 01:40:45;;;;;;;1999.90;999.90;;;;;;;-143.90;100.00;55011.94;3046266;19;19940;-61
2022/07/07 01:41:45;;;;;;;;;;;;;;;-143.90;100.00;55000.03;3046429;19;20019;-60
2022/07/07 01:42:46;;;;;;;1999.90;999.90;;;;;;;-143.90;100.00;55015.91;3049045;19;19926;-61
2022/07/07 01:43:47;;;;;;;;;;;;;;;-143.90;100.00;55043.72;3045711;19;20021;-61
2022/07/07 01:44:51;;;;;;;1999.90;999.90;;;;;;;-143.90;100.00;55007.97;3048566;19;19939;-60
2022/07/07 01:45:52;;;;;;;1999.90;999.90;;;;;;;-143.90;100.00;55067.53;3048229;19;20007;-59
2022/07/07 01:46:53;;;;;;;;;;;;;;;-143.90;100.00;55011.94;3046387;19;20034;-61
2022/07/07 01:47:54;;;;;;;1999.90;999.90;;;;;;;-143.90;100.00;54996.06;3049531;19;19954;-60
2022/07/07 01:48:55;;;;;;;;;;;;;;;-143.90;100.00;55007.97;3045730;19;20006;-60
2022/07/07 01:49:56;;;;;;;1999.90;999.90;;;;;;;-143.90;100.00;55043.72;3050368;19;19986;-60
2022/07/07 01:50:57;;;;;;;;;;;;;;;-143.90;100.00;54984.16;3045880;19;20027;-60
2022/07/07 01:51:58;;;;;;;1999.90;999.90;;;;;;;-143.90;100.00;55019.88;3044139;19;19922;-60
2022/07/07 01:53:00;;;;;;;1999.90;999.90;;;;;;;-143.90;100.00;55025.84;3050138;19;20018;-60
2022/07/07 01:54:01;;;;;;;1999.90;999.90;;;;;;;-143.90;100.00;55043.72;3044809;19;20501;-60
2022/07/07 01:55:02;;;;;;;;;;;;;;;-143.90;100.00;55055.63;3047889;19;20588;-60
2022/07/07 01:56:04;;;;;;;1999.90;999.90;;;;;;;-143.90;100.00;54996.06;3047983;19;19922;-60
2022/07/07 01:57:06;;;;;;;1999.90;999.90;;;;;;;-143.90;100.00;55067.53;3044642;19;20691;-60
2022/07/07 01:58:08;;;;;;;1999.90;999.90;;;;;;;-143.90;100.00;55019.88;3051114;19;20014;-60
2022/07/07 01:59:08;;;;;;;;;;;;;;;-143.90;100.00;55007.97;3048657;19;20565;-59
2022/07/07 02:00:11;;;;;;;1999.90;999.90;;;;;;;-143.90;100.00;54988.13;3048287;19;20551;-61
2022/07/07 02:01:12;;;;;;;1999.90;999.90;;;;;;;-143.90;100.00;55023.84;3048013;19;20011;-61
2022/07/07 02:02:13;;;;;;;1999.90;999.90;;;;;;;-143.90;100.00;55015.91;3045049;19;20375;-61
2022/07/07 02:03:14;;;;;;;;;;;;;;;-143.90;100.00;55011.94;3046607;19;20015;-60
2022/07/07 02:04:15;;;;;;;1999.90;999.90;;;;;;;-143.90;100.00;55019.88;3050794;19;19918;-61
2022/07/07 02:05:17;;;;;;;1999.90;999.90;;;;;;;-143.90;100.00;55021.88;3046355;19;20018;-61
2022/07/07 02:06:17;;;;;;;;;;;;;;;-143.90;100.00;55031.78;3046878;19;20019;-60
2022/07/07 02:07:19;;;;;;;1999.90;999.90;;;;;;;-143.90;100.00;55019.88;3048928;19;19928;-61
2022/07/07 02:08:20;;;;;;;1999.90;999.90;;;;;;;-143.90;100.00;55047.69;3045343;19;20014;-61
2022/07/07 02:09:21;;;;;;;;;;;;;;;-143.90;100.00;55043.72;3045924;19;20011;-61
2022/07/07 02:11:42;;;;;;;1999.90;999.90;;;;;;;-143.90;100.00;55047.69;3045462;19;20022;-60
2022/07/07 02:12:43;;;;;;;;;;;;;;;-143.90;100.00;55029.81;3049026;19;20006;-61
2022/07/07 02:13:46;;;;;;;1999.90;999.90;;;;;;;-143.90;100.00;55025.84;3048412;19;19939;-61
2022/07/07 02:14:47;;;;;;;1999.90;999.90;;;;;;;-143.90;100.00;55059.59;3046862;19;20035;-60
2022/07/07 02:15:48;;;;;;;;;;;;;;;-143.90;100.00;55045.69;3049183;19;20014;-60
2022/07/07 02:16:49;;;;;;;1999.90;999.90;;;;;;;-143.90;100.00;55055.63;3045876;19;19918;-60
2022/07/07 02:17:50;;;;;;;;;;;;;;;-143.90;100.00;55019.88;3048164;19;20450;-60
2022/07/07 02:18:56;;;;;;;1999.90;999.90;;;;;;;-143.90;100.00;55057.59;3047557;19;19922;-61
2022/07/07 02:19:57;;;;;;;1999.90;999.90;;;;;;;-143.90;100.00;55047.69;3045688;19;20010;-61
2022/07/07 02:20:58;;;;;;;;;;;;;;;-143.90;100.00;55059.59;3050026;19;20073;-61
2022/07/07 02:21:59;;;;;;;1999.90;999.90;;;;;;;-143.90;100.00;55015.91;3046242;19;19927;-60
2022/07/07 02:23:00;;;;;;;1999.90;999.90;;;;;;;-143.90;100.00;55039.75;3045559;19;20014;-61
2022/07/07 02:24:02;;;;;;;;;;;;;;;-143.90;100.00;55027.81;3049479;19;20018;-60
2022/07/07 02:25:03;;;;;;;1999.90;999.90;;;;;;;-143.90;100.00;55055.63;3045061;19;19914;-61
2022/07/07 02:26:04;;;;;;;1999.90;999.90;;;;;;;-143.90;100.00;55011.94;3048668;19;20038;-61
2022/07/07 02:27:05;;;;;;;1999.90;999.90;;;;;;;-143.90;100.00;55011.94;3047610;19;20478;-60
2022/07/07 02:28:06;;;;;;;;;;;;;;;-143.90;100.00;55055.63;3047157;19;20041;-60
2022/07/07 02:29:07;;;;;;;1999.90;999.90;;;;;;;-143.90;100.00;55043.72;3049596;19;20464;-60
2022/07/07 02:30:08;;;;;;;;;;;;;;;-143.90;100.00;55031.78;3046053;19;20795;-60
2022/07/07 02:31:09;;;;;;;1999.90;999.90;;;;;;;-143.90;100.00;55019.88;3049618;19;19966;-60
2022/07/07 02:32:10;;;;;;;1999.90;999.90;;;;;;;-143.90;100.00;55019.88;3044916;19;20014;-61
2022/07/07 02:33:11;;;;;;;;;;;;;;;-143.90;100.00;55019.88;3045569;19;20021;-60
2022/07/07 02:34:12;;;;;;;1999.90;999.90;;;;;;;-143.90;100.00;55049.66;3047603;19;19926;-60
2022/07/07 02:35:13;;;;;;;;;;;;;;;-143.90;100.00;55023.84;3046681;19;20427;-60
2022/07/07 02:36:14;;;;;;;1999.90;999.90;;;;;;;-143.90;100.00;55055.63;3047285;19;20486;-60
2022/07/07 02:37:15;;;;;;;1999.90;999.90;;;;;;;-143.90;100.00;55035.78;3045804;19;20101;-61
2022/07/07 02:38:16;;;;;;;;;;;;;;;-143.90;100.00;55063.56;3041183;19;20053;-60
2022/07/07 02:39:17;;;;;;;1999.90;999.90;;;;;;;-143.90;100.00;55000.03;3047834;19;19914;-61
2022/07/07 02:40:18;;;;;;;1999.90;999.90;;;;;;;-143.90;100.00;54996.06;3047228;19;20015;-60
2022/07/07 02:41:19;;;;;;;;;;;;;;;-143.90;100.00;55035.78;3050594;19;20078;-60
2022/07/07 02:42:20;;;;;;;1999.90;999.90;;;;;;;-143.90;100.00;55031.78;3044529;19;19919;-61
2022/07/07 02:43:21;;;;;;;;;;;;;;;-143.90;100.00;55043.72;3048143;19;20848;-60
2022/07/07 02:44:22;;;;;;;1999.90;999.90;;;;;;;-143.90;100.00;55023.84;3043409;19;19926;-60
2022/07/07 02:45:23;;;;;;;;;;;;;;;-143.90;100.00;55059.59;3049577;19;20037;-61
2022/07/07 02:46:24;;;;;;;1999.90;999.90;;;;;;;-143.90;100.00;55031.78;3040810;19;19950;-60
2022/07/07 02:47:25;;;;;;;;;;;;;;;-143.90;100.00;55017.91;3047520;19;20026;-60
2022/07/07 02:48:27;;;;;;;1999.90;999.90;;;;;;;-143.90;100.00;55033.78;3048843;19;19918;-61
2022/07/07 02:49:28;;;;;;;1999.90;999.90;;;;;;;-143.90;100.00;55039.75;3048225;19;20011;-61
2022/07/07 02:50:29;;;;;;;;;;;;;;;-143.90;100.00;55007.97;3045540;19;20106;-60
2022/07/07 02:51:30;;;;;;;1999.90;999.90;;;;;;;-143.90;100.00;55041.72;3045500;19;20086;-61
2022/07/07 02:52:31;;;;;;;1999.90;999.90;;;;;;;-143.90;100.00;55019.88;3048951;19;20015;-60
2022/07/07 02:53:34;;;;;;;;;;;;;;;-143.90;100.00;55067.53;3047961;19;20019;-60
2022/07/07 02:54:34;;;;;;;1999.90;999.90;;;;;;;-143.90;100.00;55011.94;3046012;19;19933;-60
2022/07/07 02:55:36;;;;;;;;;;;;;;;-143.90;100.00;55023.84;3047505;19;20022;-60
2022/07/07 02:56:37;;;;;;;1999.90;999.90;;;;;;;-143.90;100.00;55015.91;3046070;19;19918;-60
2022/07/07 02:57:39;;;;;;;1999.90;999.90;;;;;;;-143.90;100.00;55097.31;3046987;19;20010;-61
2022/07/07 02:58:39;;;;;;;;;;;;;;;-143.90;100.00;55027.81;3046849;19;20037;-61
2022/07/07 02:59:40;;;;;;;1999.90;999.90;;;;;;;-143.90;100.00;55055.63;3046741;19;19914;-60
2022/07/07 03:00:41;;;;;;;1999.90;999.90;;;;;;;-143.90;100.00;55035.78;3048149;19;20437;-61
2022/07/07 03:01:42;;;;;;;;;;;;;;;-143.90;100.00;55023.84;3048014;19;20513;-60
2022/07/07 03:02:44;;;;;;;1999.90;999.90;;;;;;;-143.90;100.00;55051.66;3049398;19;20250;-60
2022/07/07 03:03:45;;;;;;;1999.90;999.90;;;;;;;-143.90;100.00;55023.84;3044292;19;20121;-61
2022/07/07 03:04:46;;;;;;;;;;;;;;;-143.90;100.00;54996.06;3047452;19;20018;-61
2022/07/07 03:05:47;;;;;;;1999.90;999.90;;;;;;;-143.90;100.00;55027.81;3047922;19;19926;-60
2022/07/07 03:06:47;;;;;;;;;;;;;;;-143.90;100.00;55059.59;3048414;19;20018;-60
2022/07/07 03:07:49;;;;;;;1999.90;999.90;;;;;;;-143.90;100.00;55033.78;3045084;19;20511;-60
2022/07/07 03:08:50;;;;;;;1999.90;999.90;;;;;;;-143.90;100.00;55063.56;3048755;19;20018;-61
2022/07/07 03:09:51;;;;;;;;;;;;;;;-143.90;100.00;55023.84;3046140;19;20033;-60
2022/07/07 03:10:52;;;;;;;1999.90;999.90;;;;;;;-143.90;100.00;55035.78;3045872;19;19919;-61
2022/07/07 03:11:53;;;;;;;;;;;;;;;-143.90;100.00;55035.78;3047039;19;20018;-60
2022/07/07 03:12:54;;;;;;;1999.90;999.90;;;;;;;-143.90;100.00;55075.47;3048203;19;19914;-60
2022/07/07 03:13:55;;;;;;;;;;;;;;;-143.90;100.00;55055.63;3049233;19;20006;-60
2022/07/07 03:14:56;;;;;;;1999.90;999.90;;;;;;;-143.90;100.00;55023.84;3041879;19;19918;-60
2022/07/07 03:15:57;;;;;;;1999.90;999.90;;;;;;;-143.90;100.00;55059.59;3043906;19;20012;-60
2022/07/07 03:16:58;;;;;;;;;;;;;;;-143.90;100.00;55067.53;3047357;19;20796;-60
2022/07/07 03:17:59;;;;;;;1999.90;999.90;;;;;;;-143.90;100.00;55061.59;3045079;19;19918;-60
2022/07/07 03:19:00;;;;;;;;;;;;;;;-143.90;100.00;55065.56;3046835;19;20015;-61
2022/07/07 03:20:02;;;;;;;1999.90;999.90;;;;;;;-143.90;100.00;55073.50;3047923;19;19918;-59
2022/07/07 03:21:04;;;;;;;1999.90;999.90;;;;;;;-143.90;100.00;55043.72;3043564;19;20014;-60
2022/07/07 03:22:04;;;;;;;;;;;;;;;-143.90;100.00;55067.53;3044408;19;20531;-61
2022/07/07 03:23:06;;;;;;;1999.90;999.90;;;;;;;-143.90;100.00;55063.56;3049243;19;19918;-60
2022/07/07 03:24:07;;;;;;;;;;;;;;;-143.90;100.00;55047.69;3046110;19;20364;-61
2022/07/07 03:25:09;;;;;;;1999.90;999.90;;;;;;;-143.90;100.00;55041.72;3044828;19;19939;-61
2022/07/07 03:26:10;;;;;;;1999.90;999.90;;;;;;;-143.90;100.00;55059.59;3047710;19;20035;-61
2022/07/07 03:27:11;;;;;;;;;;;;;;;-143.90;100.00;55059.59;3046128;19;20014;-60
2022/07/07 03:28:12;;;;;;;1999.90;999.90;;;;;;;-143.90;100.00;55043.72;3048511;19;19929;-61
2022/07/07 03:29:13;;;;;;;1999.90;999.90;;;;;;;-143.90;100.00;55059.59;3045562;19;20018;-61
2022/07/07 03:30:14;;;;;;;;;;;;;;;-143.90;100.00;55039.75;3046715;19;20014;-60
2022/07/07 03:31:15;;;;;;;1999.90;999.90;;;;;;;-143.90;100.00;55039.75;3047940;19;19922;-60
2022/07/07 03:32:16;;;;;;;;;;;;;;;-143.90;100.00;55075.47;3043274;19;20018;-61
2022/07/07 03:33:17;;;;;;;1999.90;999.90;;;;;;;-143.90;100.00;55063.56;3046405;19;19918;-61
2022/07/07 03:34:18;;;;;;;;;;;;;;;-143.90;100.00;55087.41;3046315;19;20481;-61
2022/07/07 03:35:19;;;;;;;1999.90;999.90;;;;;;;-143.90;100.00;55053.63;3044142;19;19938;-61
2022/07/07 03:36:20;;;;;;;;;;;;;;;-143.90;100.00;55075.47;3046668;19;20018;-61
2022/07/07 03:37:21;;;;;;;1999.90;999.90;;;;;;;-143.90;100.00;55069.53;3045139;19;19922;-61
2022/07/07 03:38:22;;;;;;;1999.90;999.90;;;;;;;-143.90;100.00;55075.47;3046710;19;21036;-61
2022/07/07 03:39:23;;;;;;;;;;;;;;;-143.90;100.00;55075.47;3048813;19;20037;-60
2022/07/07 03:40:24;;;;;;;1999.90;999.90;;;;;;;-143.90;100.00;55041.72;3045153;19;20376;-60
2022/07/07 03:41:25;;;;;;;;;;;;;;;-143.90;100.00;55071.50;3048769;19;20025;-61
2022/07/07 03:42:26;;;;;;;1999.90;999.90;;;;;;;-143.90;100.00;55057.59;3048221;19;19919;-61
2022/07/07 03:43:27;;;;;;;1999.90;999.90;;;;;;;-143.90;100.00;55055.63;3046950;19;20520;-61
2022/07/07 03:44:28;;;;;;;;;;;;;;;-143.90;100.00;55017.91;3045698;19;20512;-60
2022/07/07 03:45:29;;;;;;;1999.90;999.90;;;;;;;-143.90;100.00;55077.47;3043512;19;20416;-60
2022/07/07 03:46:30;;;;;;;;;;;;;;;-143.90;100.00;55083.41;3048025;19;20022;-61
2022/07/07 03:47:32;;;;;;;1999.90;999.90;;;;;;;-143.90;100.00;55073.50;3048621;19;19922;-61
2022/07/07 03:48:32;;;;;;;1999.90;999.90;;;;;;;-143.90;100.00;55101.28;3044010;19;20502;-60
2022/07/07 03:49:33;;;;;;;;;;;;;;;-143.90;100.00;55067.53;3046450;19;20021;-61
2022/07/07 03:50:34;;;;;;;1999.90;999.90;;;;;;;-143.90;100.00;55063.56;3047851;19;20481;-60
2022/07/07 03:51:36;;;;;;;1999.90;999.90;;;;;;;-143.90;100.00;55055.63;3042368;19;20335;-60
2022/07/07 03:52:37;;;;;;;1999.90;999.90;;;;;;;-143.90;100.00;55079.44;3041155;19;20442;-60
2022/07/07 03:53:38;;;;;;;;;;;;;;;-143.90;100.00;55075.47;3049397;19;20518;-60
2022/07/07 03:54:39;;;;;;;1999.90;999.90;;;;;;;-143.90;100.00;55079.44;3043196;19;19919;-60
2022/07/07 03:55:40;;;;;;;1999.90;999.90;;;;;;;-143.90;100.00;55071.50;3048793;19;20010;-60
2022/07/07 03:56:41;;;;;;;1999.90;999.90;;;;;;;-143.90;100.00;55043.72;3044691;19;20018;-61
2022/07/07 03:57:42;;;;;;;1999.90;999.90;;;;;;;-143.90;100.00;55037.75;3046007;19;20015;-60
2022/07/07 03:58:43;;;;;;;;;;;;;;;-143.90;100.00;55059.59;3048798;19;20020;-61
2022/07/07 03:59:44;;;;;;;1999.90;999.90;;;;;;;-143.90;100.00;55055.63;3045255;19;19922;-60
2022/07/07 04:00:45;;;;;;;1999.90;999.90;;;;;;;-143.90;100.00;55079.44;3044869;19;20003;-60
2022/07/07 04:01:46;;;;;;;;;;;;;;;-143.90;100.00;55083.41;3047958;19;20013;-61
2022/07/07 04:02:47;;;;;;;1999.90;999.90;;;;;;;-143.90;100.00;55085.41;3045648;19;19925;-60
2022/07/07 04:03:48;;;;;;;1999.90;999.90;;;;;;;-143.90;100.00;55059.59;3050256;19;20666;-60
2022/07/07 04:04:50;;;;;;;1999.90;999.90;;;;;;;-143.90;100.00;55091.38;3047637;19;20859;-60
2022/07/07 04:05:51;;;;;;;1999.90;999.90;;;;;;;-143.90;100.00;55075.47;3045802;19;20398;-60
2022/07/07 04:06:52;;;;;;;;;;;;;;;-143.90;100.00;55083.41;3051761;19;20378;-61
2022/07/07 04:07:53;;;;;;;1999.90;999.90;;;;;;;-143.90;100.00;55107.25;3045281;19;19915;-61
2022/07/07 04:08:54;;;;;;;1999.90;999.90;;;;;;;-143.90;100.00;55073.50;3041805;19;20061;-60
2022/07/07 04:09:55;;;;;;;1999.90;999.90;;;;;;;-143.90;100.00;55057.59;3047488;19;20019;-61
2022/07/07 04:10:56;;;;;;;;;;;;;;;-143.90;100.00;55047.69;3043242;19;20050;-60
2022/07/07 04:11:57;;;;;;;1999.90;999.90;;;;;;;-143.90;100.00;55079.44;3049938;19;19941;-61
2022/07/07 04:12:58;;;;;;;1999.90;999.90;;;;;;;-143.90;100.00;55071.50;3048372;19;20020;-61
2022/07/07 04:13:59;;;;;;;;;;;;;;;-143.90;100.00;55051.66;3046942;19;20081;-61
2022/07/07 04:15:00;;;;;;;1999.90;999.90;;;;;;;-143.90;100.00;55065.56;3051499;19;19919;-60
2022/07/07 04:16:01;;;;;;;1999.90;999.90;;;;;;;-143.90;100.00;55057.59;3047289;19;20025;-59
2022/07/07 04:17:03;;;;;;;1999.90;999.90;;;;;;;-143.90;100.00;55087.41;3048873;19;20018;-60
2022/07/07 04:18:04;;;;;;;1999.90;999.90;;;;;;;-143.90;100.00;55075.47;3050464;19;20011;-60
2022/07/07 04:19:05;;;;;;;;;;;;;;;-143.90;100.00;55075.47;3051202;19;20021;-62
2022/07/07 04:20:07;;;;;;;1999.90;999.90;;;;;;;-143.90;100.00;55035.78;3046160;19;19931;-60
2022/07/07 04:21:08;;;;;;;1999.90;999.90;;;;;;;-143.90;100.00;55063.56;3044974;19;20011;-60
2022/07/07 04:22:09;;;;;;;;;;;;;;;-143.90;100.00;55099.31;3050648;19;20017;-61
2022/07/07 04:23:10;;;;;;;1999.90;999.90;;;;;;;-143.90;100.00;55115.19;3048718;19;19921;-60
2022/07/07 04:24:11;;;;;;;1999.90;999.90;;;;;;;-143.90;100.00;55095.34;3049384;19;20074;-61
2022/07/07 04:25:12;;;;;;;1999.90;999.90;;;;;;;-143.90;100.00;55051.66;3049972;19;20090;-61
2022/07/07 04:26:13;;;;;;;;;;;;;;;-143.90;100.00;55047.69;3047758;19;20007;-61
2022/07/07 04:27:14;;;;;;;1999.90;999.90;;;;;;;-143.90;100.00;55079.44;3048244;19;19926;-62
2022/07/07 04:28:15;;;;;;;;;;;;;;;-143.90;100.00;55043.72;3052179;19;20513;-61
2022/07/07 04:29:16;;;;;;;1999.90;999.90;;;;;;;-143.90;100.00;55071.50;3045342;19;19934;-61
2022/07/07 04:30:17;;;;;;;;;;;;;;;-143.90;100.00;55071.50;3050222;19;20113;-61
2022/07/07 04:31:18;;;;;;;1999.90;999.90;;;;;;;-143.90;100.00;55087.41;3048964;19;19919;-61
2022/07/07 04:32:19;;;;;;;1999.90;999.90;;;;;;;-143.90;100.00;55055.63;3049237;19;20450;-60
2022/07/07 04:33:20;;;;;;;;;;;;;;;-143.90;100.00;55057.59;3050919;19;20486;-60
2022/07/07 04:34:22;;;;;;;1999.90;999.90;;;;;;;-143.90;100.00;55063.56;3048353;19;20377;-62
2022/07/07 04:35:23;;;;;;;1999.90;999.90;;;;;;;-143.90;100.00;55063.56;3050202;19;20018;-61
2022/07/07 04:36:24;;;;;;;;;;;;;;;-143.90;100.00;55075.47;3051585;19;20002;-62
2022/07/07 04:37:25;;;;;;;1999.90;999.90;;;;;;;-143.90;100.00;55071.50;3047811;19;19919;-61
2022/07/07 04:38:26;;;;;;;1999.90;999.90;;;;;;;-143.90;100.00;55065.56;3049445;19;20024;-59